Hlavní strana
METAR-TAF:

METAR-TAF

Letiště :

Emporia-Greensville Regional Airport

Emporia, Virginie, Spojené státy americké

zeměpisná šířka: 36-41-13N, zeměpisná délka: 077-28-58W, výška: 39 m

Aktuální stav počasí

Zpráva byla vytvořena před 11 minutami, v 17:55 UTC
Západní vítr 14 kt s nárazy do 23 kt
Teplota 7°C
Vlhkost vzduchu 45%
Tlak 1014 hPa
Jasno

METAR: KEMV 271755Z AUTO 26014G23KT CLR 07/M04 A2993 RMK AO2 6//// T00731041 10074 20035

Čas: 13:06 (18:06 UTC)


TAF: chybějící

Stav a předpovědi počasí z více než 4 000 letišť (zprávy METAR a TAF).

Červené a žluté tečky na mapě představují dostupné meteorologické stanice.

Když kurzor umístíte na tečku, zobrazí se název stanice.

Pak kliknutím zobrazíte stav a předpověď počasí.

Chcete-li změnit mapu, kliknutím na zelené tlačítko se znaménkem +mapu přiblížíte, kliknutím na zelené tlačítko se znaménkem – mapu oddálíte a kliknutím na zelené šipky přejdete na sousední mapy.


METAR-TAF: